sensor_id;sensor_type;location;lat;lon;timestamp;temperature;humidity
698;DHT22;331;48.414;9.938;2023-02-28T00:00:06;0.10;99.90
698;DHT22;331;48.414;9.938;2023-02-28T00:02:37;0.10;99.90
698;DHT22;331;48.414;9.938;2023-02-28T00:05:04;0.10;99.90
698;DHT22;331;48.414;9.938;2023-02-28T00:07:32;0.10;99.90
698;DHT22;331;48.414;9.938;2023-02-28T00:09:59;0.10;99.90
698;DHT22;331;48.414;9.938;2023-02-28T00:12:26;0.10;99.90
698;DHT22;331;48.414;9.938;2023-02-28T00:14:53;0.10;99.90
698;DHT22;331;48.414;9.938;2023-02-28T00:17:20;0.10;99.90
698;DHT22;331;48.414;9.938;2023-02-28T00:19:49;0.10;99.90
698;DHT22;331;48.414;9.938;2023-02-28T00:22:16;0.10;99.90
698;DHT22;331;48.414;9.938;2023-02-28T00:24:43;0.10;99.90
698;DHT22;331;48.414;9.938;2023-02-28T00:27:10;0.10;99.90
698;DHT22;331;48.414;9.938;2023-02-28T00:29:37;0.10;99.90
698;DHT22;331;48.414;9.938;2023-02-28T00:32:04;0.10;99.90
698;DHT22;331;48.414;9.938;2023-02-28T00:34:32;0.10;99.90
698;DHT22;331;48.414;9.938;2023-02-28T00:37:05;0.10;99.90
698;DHT22;331;48.414;9.938;2023-02-28T00:39:33;0.10;99.90
698;DHT22;331;48.414;9.938;2023-02-28T00:42:00;0.00;99.90
698;DHT22;331;48.414;9.938;2023-02-28T00:44:27;0.10;99.90
698;DHT22;331;48.414;9.938;2023-02-28T00:46:54;0.10;99.90
698;DHT22;331;48.414;9.938;2023-02-28T00:49:23;0.00;99.90
698;DHT22;331;48.414;9.938;2023-02-28T00:51:51;0.10;99.90
698;DHT22;331;48.414;9.938;2023-02-28T00:54:20;0.00;99.90
698;DHT22;331;48.414;9.938;2023-02-28T00:56:49;0.00;99.90
698;DHT22;331;48.414;9.938;2023-02-28T00:59:16;0.00;99.90
698;DHT22;331;48.414;9.938;2023-02-28T01:01:44;0.00;99.90
698;DHT22;331;48.414;9.938;2023-02-28T01:04:11;0.00;99.90
698;DHT22;331;48.414;9.938;2023-02-28T01:06:39;0.00;99.90
698;DHT22;331;48.414;9.938;2023-02-28T01:09:09;0.00;99.90
698;DHT22;331;48.414;9.938;2023-02-28T01:11:38;0.00;99.90
698;DHT22;331;48.414;9.938;2023-02-28T01:14:07;0.00;99.90
698;DHT22;331;48.414;9.938;2023-02-28T01:16:33;0.00;99.90
698;DHT22;331;48.414;9.938;2023-02-28T01:19:01;0.00;99.90
698;DHT22;331;48.414;9.938;2023-02-28T01:21:28;0.00;99.90
698;DHT22;331;48.414;9.938;2023-02-28T01:23:56;0.00;99.90
698;DHT22;331;48.414;9.938;2023-02-28T01:26:23;0.00;99.90
698;DHT22;331;48.414;9.938;2023-02-28T01:28:51;0.00;99.90
698;DHT22;331;48.414;9.938;2023-02-28T01:31:19;0.00;99.90
698;DHT22;331;48.414;9.938;2023-02-28T01:33:48;0.00;99.90
698;DHT22;331;48.414;9.938;2023-02-28T01:36:16;-0.10;99.90
698;DHT22;331;48.414;9.938;2023-02-28T01:38:43;-0.10;99.90
698;DHT22;331;48.414;9.938;2023-02-28T01:41:12;-0.10;99.90
698;DHT22;331;48.414;9.938;2023-02-28T01:43:56;-0.10;99.90
698;DHT22;331;48.414;9.938;2023-02-28T01:46:23;-0.10;99.90
698;DHT22;331;48.414;9.938;2023-02-28T01:48:53;-0.10;99.90
698;DHT22;331;48.414;9.938;2023-02-28T01:51:21;-0.10;99.90
698;DHT22;331;48.414;9.938;2023-02-28T01:53:49;-0.10;99.90
698;DHT22;331;48.414;9.938;2023-02-28T01:56:19;-0.10;99.90
698;DHT22;331;48.414;9.938;2023-02-28T01:58:48;-0.10;99.90
698;DHT22;331;48.414;9.938;2023-02-28T02:01:17;-0.10;99.90
698;DHT22;331;48.414;9.938;2023-02-28T02:03:47;-0.10;99.90
698;DHT22;331;48.414;9.938;2023-02-28T02:06:21;-0.10;99.90
698;DHT22;331;48.414;9.938;2023-02-28T02:08:48;-0.10;99.90
698;DHT22;331;48.414;9.938;2023-02-28T02:11:16;-0.10;99.90
698;DHT22;331;48.414;9.938;2023-02-28T02:13:48;-0.10;99.90
698;DHT22;331;48.414;9.938;2023-02-28T02:16:28;-0.10;99.90
698;DHT22;331;48.414;9.938;2023-02-28T02:18:57;-0.10;99.90
698;DHT22;331;48.414;9.938;2023-02-28T02:21:41;-0.10;99.90
698;DHT22;331;48.414;9.938;2023-02-28T02:24:17;-0.10;99.90
698;DHT22;331;48.414;9.938;2023-02-28T02:29:47;-0.10;99.90
698;DHT22;331;48.414;9.938;2023-02-28T02:32:28;-0.10;99.90
698;DHT22;331;48.414;9.938;2023-02-28T02:35:06;-0.10;99.90
698;DHT22;331;48.414;9.938;2023-02-28T02:37:36;-0.10;99.90
698;DHT22;331;48.414;9.938;2023-02-28T02:40:09;-0.10;99.90
698;DHT22;331;48.414;9.938;2023-02-28T02:42:39;-0.10;99.90
698;DHT22;331;48.414;9.938;2023-02-28T02:45:10;-0.10;99.90
698;DHT22;331;48.414;9.938;2023-02-28T02:47:38;-0.10;99.90
698;DHT22;331;48.414;9.938;2023-02-28T02:50:08;-0.20;99.90
698;DHT22;331;48.414;9.938;2023-02-28T02:52:38;-0.20;99.90
698;DHT22;331;48.414;9.938;2023-02-28T02:55:07;-0.20;99.90
698;DHT22;331;48.414;9.938;2023-02-28T02:57:37;-0.20;99.90
698;DHT22;331;48.414;9.938;2023-02-28T03:00:05;-0.10;99.90
698;DHT22;331;48.414;9.938;2023-02-28T03:02:34;-0.10;99.90
698;DHT22;331;48.414;9.938;2023-02-28T03:05:03;-0.20;99.90
698;DHT22;331;48.414;9.938;2023-02-28T03:07:32;-0.20;99.90
698;DHT22;331;48.414;9.938;2023-02-28T03:09:59;-0.10;99.90
698;DHT22;331;48.414;9.938;2023-02-28T03:12:28;-0.10;99.90
698;DHT22;331;48.414;9.938;2023-02-28T03:15:00;-0.20;99.90
698;DHT22;331;48.414;9.938;2023-02-28T03:17:42;-0.20;99.90
698;DHT22;331;48.414;9.938;2023-02-28T03:20:14;-0.20;99.90
698;DHT22;331;48.414;9.938;2023-02-28T03:22:46;-0.20;99.90
698;DHT22;331;48.414;9.938;2023-02-28T03:25:20;-0.10;99.90
698;DHT22;331;48.414;9.938;2023-02-28T03:27:49;-0.20;99.90
698;DHT22;331;48.414;9.938;2023-02-28T03:30:22;-0.20;99.90
698;DHT22;331;48.414;9.938;2023-02-28T03:32:51;-0.20;99.90
698;DHT22;331;48.414;9.938;2023-02-28T03:35:20;-0.20;99.90
698;DHT22;331;48.414;9.938;2023-02-28T03:37:50;-0.20;99.90
698;DHT22;331;48.414;9.938;2023-02-28T03:40:19;-0.20;99.90
698;DHT22;331;48.414;9.938;2023-02-28T03:42:48;-0.20;99.90
698;DHT22;331;48.414;9.938;2023-02-28T03:45:16;-0.20;99.90
698;DHT22;331;48.414;9.938;2023-02-28T03:47:45;-0.20;99.90
698;DHT22;331;48.414;9.938;2023-02-28T03:50:15;-0.20;99.90
698;DHT22;331;48.414;9.938;2023-02-28T03:52:45;-0.20;99.90
698;DHT22;331;48.414;9.938;2023-02-28T03:55:14;-0.20;99.90
698;DHT22;331;48.414;9.938;2023-02-28T03:57:43;-0.20;99.90
698;DHT22;331;48.414;9.938;2023-02-28T04:00:15;-0.20;99.90
698;DHT22;331;48.414;9.938;2023-02-28T04:02:44;-0.20;99.90
698;DHT22;331;48.414;9.938;2023-02-28T04:05:11;-0.20;99.90
698;DHT22;331;48.414;9.938;2023-02-28T04:07:38;-0.20;99.90
698;DHT22;331;48.414;9.938;2023-02-28T04:10:05;-0.20;99.90
698;DHT22;331;48.414;9.938;2023-02-28T04:12:34;-0.20;99.90
698;DHT22;331;48.414;9.938;2023-02-28T04:15:01;-0.20;99.90
698;DHT22;331;48.414;9.938;2023-02-28T04:17:28;-0.20;99.90
698;DHT22;331;48.414;9.938;2023-02-28T04:19:55;-0.20;99.90
698;DHT22;331;48.414;9.938;2023-02-28T04:22:23;-0.20;99.90
698;DHT22;331;48.414;9.938;2023-02-28T04:24:52;-0.20;99.90
698;DHT22;331;48.414;9.938;2023-02-28T04:27:19;-0.20;99.90
698;DHT22;331;48.414;9.938;2023-02-28T04:29:48;-0.20;99.90
698;DHT22;331;48.414;9.938;2023-02-28T04:32:15;-0.20;99.90
698;DHT22;331;48.414;9.938;2023-02-28T04:34:42;-0.20;99.90
698;DHT22;331;48.414;9.938;2023-02-28T04:37:08;-0.20;99.90
698;DHT22;331;48.414;9.938;2023-02-28T04:39:36;-0.20;99.90
698;DHT22;331;48.414;9.938;2023-02-28T04:42:03;-0.30;99.90
698;DHT22;331;48.414;9.938;2023-02-28T04:44:29;-0.30;99.90
698;DHT22;331;48.414;9.938;2023-02-28T04:46:58;-0.20;99.90
698;DHT22;331;48.414;9.938;2023-02-28T04:49:25;-0.30;99.90
698;DHT22;331;48.414;9.938;2023-02-28T04:51:52;-0.20;99.90
698;DHT22;331;48.414;9.938;2023-02-28T04:54:19;-0.30;99.90
698;DHT22;331;48.414;9.938;2023-02-28T04:56:46;-0.30;99.90
698;DHT22;331;48.414;9.938;2023-02-28T04:59:15;-0.30;99.90
698;DHT22;331;48.414;9.938;2023-02-28T05:01:44;-0.20;99.90
698;DHT22;331;48.414;9.938;2023-02-28T05:04:13;-0.30;99.90
698;DHT22;331;48.414;9.938;2023-02-28T05:06:40;-0.30;99.90
698;DHT22;331;48.414;9.938;2023-02-28T05:09:07;-0.30;99.90
698;DHT22;331;48.414;9.938;2023-02-28T05:11:34;-0.30;99.90
698;DHT22;331;48.414;9.938;2023-02-28T05:14:02;-0.30;99.90
698;DHT22;331;48.414;9.938;2023-02-28T05:16:33;-0.30;99.90
698;DHT22;331;48.414;9.938;2023-02-28T05:19:00;-0.30;99.90
698;DHT22;331;48.414;9.938;2023-02-28T05:21:29;-0.20;99.90
698;DHT22;331;48.414;9.938;2023-02-28T05:23:57;-0.30;99.90
698;DHT22;331;48.414;9.938;2023-02-28T05:26:25;-0.30;99.90
698;DHT22;331;48.414;9.938;2023-02-28T05:28:52;-0.30;99.90
698;DHT22;331;48.414;9.938;2023-02-28T05:31:19;-0.30;99.90
698;DHT22;331;48.414;9.938;2023-02-28T05:33:46;-0.30;99.90
698;DHT22;331;48.414;9.938;2023-02-28T05:36:13;-0.30;99.90
698;DHT22;331;48.414;9.938;2023-02-28T05:38:43;-0.30;99.90
698;DHT22;331;48.414;9.938;2023-02-28T05:41:12;-0.30;99.90
698;DHT22;331;48.414;9.938;2023-02-28T05:43:39;-0.30;99.90
698;DHT22;331;48.414;9.938;2023-02-28T05:46:06;-0.30;99.90
698;DHT22;331;48.414;9.938;2023-02-28T05:48:34;-0.30;99.90
698;DHT22;331;48.414;9.938;2023-02-28T05:51:02;-0.30;99.90
698;DHT22;331;48.414;9.938;2023-02-28T05:53:29;-0.30;99.90
698;DHT22;331;48.414;9.938;2023-02-28T05:55:58;-0.30;99.90
698;DHT22;331;48.414;9.938;2023-02-28T05:58:25;-0.30;99.90
698;DHT22;331;48.414;9.938;2023-02-28T06:00:56;-0.30;99.90
698;DHT22;331;48.414;9.938;2023-02-28T06:03:23;-0.40;99.90
698;DHT22;331;48.414;9.938;2023-02-28T06:05:50;-0.40;99.90
698;DHT22;331;48.414;9.938;2023-02-28T06:08:17;-0.40;99.90
698;DHT22;331;48.414;9.938;2023-02-28T06:10:43;-0.40;99.90
698;DHT22;331;48.414;9.938;2023-02-28T06:13:12;-0.30;99.90
698;DHT22;331;48.414;9.938;2023-02-28T06:15:39;-0.40;99.90
698;DHT22;331;48.414;9.938;2023-02-28T06:18:06;-0.40;99.90
698;DHT22;331;48.414;9.938;2023-02-28T06:20:33;-0.40;99.90
698;DHT22;331;48.414;9.938;2023-02-28T06:23:01;-0.40;99.90
698;DHT22;331;48.414;9.938;2023-02-28T06:25:28;-0.40;99.90
698;DHT22;331;48.414;9.938;2023-02-28T06:27:55;-0.40;99.90
698;DHT22;331;48.414;9.938;2023-02-28T06:30:24;-0.40;99.90
698;DHT22;331;48.414;9.938;2023-02-28T06:32:52;-0.40;99.90
698;DHT22;331;48.414;9.938;2023-02-28T06:35:19;-0.40;99.90
698;DHT22;331;48.414;9.938;2023-02-28T06:37:46;-0.40;99.90
698;DHT22;331;48.414;9.938;2023-02-28T06:40:13;-0.40;99.90
698;DHT22;331;48.414;9.938;2023-02-28T06:42:40;-0.30;99.90
698;DHT22;331;48.414;9.938;2023-02-28T06:45:07;-0.40;99.90
698;DHT22;331;48.414;9.938;2023-02-28T06:47:36;-0.40;99.90
698;DHT22;331;48.414;9.938;2023-02-28T06:50:04;-0.40;99.90
698;DHT22;331;48.414;9.938;2023-02-28T06:52:31;-0.40;99.90
698;DHT22;331;48.414;9.938;2023-02-28T06:54:58;-0.40;99.90
698;DHT22;331;48.414;9.938;2023-02-28T06:57:27;-0.40;99.90
698;DHT22;331;48.414;9.938;2023-02-28T06:59:56;-0.40;99.90
698;DHT22;331;48.414;9.938;2023-02-28T07:02:23;-0.40;99.90
698;DHT22;331;48.414;9.938;2023-02-28T07:04:51;-0.40;99.90
698;DHT22;331;48.414;9.938;2023-02-28T07:07:18;-0.40;99.90
698;DHT22;331;48.414;9.938;2023-02-28T07:09:45;-0.40;99.90
698;DHT22;331;48.414;9.938;2023-02-28T07:12:12;-0.40;99.90
698;DHT22;331;48.414;9.938;2023-02-28T07:14:39;-0.40;99.90
698;DHT22;331;48.414;9.938;2023-02-28T07:17:06;-0.40;99.90
698;DHT22;331;48.414;9.938;2023-02-28T07:19:36;-0.40;99.90
698;DHT22;331;48.414;9.938;2023-02-28T07:22:04;-0.40;99.90
698;DHT22;331;48.414;9.938;2023-02-28T07:24:31;-0.40;99.90
698;DHT22;331;48.414;9.938;2023-02-28T07:26:58;-0.40;99.90
698;DHT22;331;48.414;9.938;2023-02-28T07:29:26;-0.40;99.90
698;DHT22;331;48.414;9.938;2023-02-28T07:31:53;-0.40;99.90
698;DHT22;331;48.414;9.938;2023-02-28T07:34:20;-0.40;99.90
698;DHT22;331;48.414;9.938;2023-02-28T07:36:46;-0.40;99.90
698;DHT22;331;48.414;9.938;2023-02-28T07:39:15;-0.40;99.90
698;DHT22;331;48.414;9.938;2023-02-28T07:41:42;-0.40;99.90
698;DHT22;331;48.414;9.938;2023-02-28T07:44:09;-0.40;99.90
698;DHT22;331;48.414;9.938;2023-02-28T07:46:36;-0.40;99.90
698;DHT22;331;48.414;9.938;2023-02-28T07:49:03;-0.40;99.90
698;DHT22;331;48.414;9.938;2023-02-28T07:51:30;-0.40;99.90
698;DHT22;331;48.414;9.938;2023-02-28T07:53:57;-0.40;99.90
698;DHT22;331;48.414;9.938;2023-02-28T07:56:25;-0.40;99.90
698;DHT22;331;48.414;9.938;2023-02-28T07:58:52;-0.40;99.90
698;DHT22;331;48.414;9.938;2023-02-28T08:01:19;-0.40;99.90
698;DHT22;331;48.414;9.938;2023-02-28T08:03:47;-0.40;99.90
698;DHT22;331;48.414;9.938;2023-02-28T08:06:17;-0.40;99.90
698;DHT22;331;48.414;9.938;2023-02-28T08:08:45;-0.40;99.90
698;DHT22;331;48.414;9.938;2023-02-28T08:11:12;-0.40;99.90
698;DHT22;331;48.414;9.938;2023-02-28T08:13:40;-0.40;99.90
698;DHT22;331;48.414;9.938;2023-02-28T08:16:09;-0.40;99.90
698;DHT22;331;48.414;9.938;2023-02-28T08:18:36;-0.40;99.90
698;DHT22;331;48.414;9.938;2023-02-28T08:21:05;-0.40;99.90
698;DHT22;331;48.414;9.938;2023-02-28T08:23:32;-0.40;99.90
698;DHT22;331;48.414;9.938;2023-02-28T08:26:00;-0.40;99.90
698;DHT22;331;48.414;9.938;2023-02-28T08:28:27;-0.40;99.90
698;DHT22;331;48.414;9.938;2023-02-28T08:30:55;-0.40;99.90
698;DHT22;331;48.414;9.938;2023-02-28T08:33:22;-0.40;99.90
698;DHT22;331;48.414;9.938;2023-02-28T08:35:51;-0.40;99.90
698;DHT22;331;48.414;9.938;2023-02-28T08:38:19;-0.40;99.90
698;DHT22;331;48.414;9.938;2023-02-28T08:40:46;-0.40;99.90
698;DHT22;331;48.414;9.938;2023-02-28T08:43:13;-0.40;99.90
698;DHT22;331;48.414;9.938;2023-02-28T08:45:40;-0.40;99.90
698;DHT22;331;48.414;9.938;2023-02-28T08:48:08;-0.40;99.90
698;DHT22;331;48.414;9.938;2023-02-28T08:50:35;-0.40;99.90
698;DHT22;331;48.414;9.938;2023-02-28T08:53:02;-0.40;99.90
698;DHT22;331;48.414;9.938;2023-02-28T08:55:29;-0.40;99.90
698;DHT22;331;48.414;9.938;2023-02-28T08:57:56;-0.40;99.90
698;DHT22;331;48.414;9.938;2023-02-28T09:00:23;-0.40;99.90
698;DHT22;331;48.414;9.938;2023-02-28T09:02:50;-0.40;99.90
698;DHT22;331;48.414;9.938;2023-02-28T09:05:18;-0.40;99.90
698;DHT22;331;48.414;9.938;2023-02-28T09:07:45;-0.40;99.90
698;DHT22;331;48.414;9.938;2023-02-28T09:10:13;-0.40;99.90
698;DHT22;331;48.414;9.938;2023-02-28T09:12:40;-0.40;99.90
698;DHT22;331;48.414;9.938;2023-02-28T09:15:07;-0.40;99.90
698;DHT22;331;48.414;9.938;2023-02-28T09:17:34;-0.40;99.90
698;DHT22;331;48.414;9.938;2023-02-28T09:20:04;-0.40;99.90
698;DHT22;331;48.414;9.938;2023-02-28T09:22:33;-0.40;99.90
698;DHT22;331;48.414;9.938;2023-02-28T09:25:01;-0.40;99.90
698;DHT22;331;48.414;9.938;2023-02-28T09:27:28;-0.40;99.90
698;DHT22;331;48.414;9.938;2023-02-28T09:29:55;-0.40;99.90
698;DHT22;331;48.414;9.938;2023-02-28T09:32:21;-0.40;99.90
698;DHT22;331;48.414;9.938;2023-02-28T09:34:49;-0.40;99.90
698;DHT22;331;48.414;9.938;2023-02-28T09:37:15;-0.40;99.90
698;DHT22;331;48.414;9.938;2023-02-28T09:39:44;-0.40;99.90
698;DHT22;331;48.414;9.938;2023-02-28T09:42:13;-0.40;99.90
698;DHT22;331;48.414;9.938;2023-02-28T09:44:45;-0.40;99.90
698;DHT22;331;48.414;9.938;2023-02-28T09:47:24;-0.40;99.90
698;DHT22;331;48.414;9.938;2023-02-28T09:49:52;-0.40;99.90
698;DHT22;331;48.414;9.938;2023-02-28T09:52:20;-0.40;99.90
698;DHT22;331;48.414;9.938;2023-02-28T09:54:49;-0.40;99.90
698;DHT22;331;48.414;9.938;2023-02-28T09:57:18;-0.30;99.90
698;DHT22;331;48.414;9.938;2023-02-28T09:59:51;-0.10;99.90
698;DHT22;331;48.414;9.938;2023-02-28T10:02:32;0.00;99.90
698;DHT22;331;48.414;9.938;2023-02-28T10:05:05;0.10;99.90
698;DHT22;331;48.414;9.938;2023-02-28T10:07:43;0.10;99.90
698;DHT22;331;48.414;9.938;2023-02-28T10:10:17;0.10;99.90
698;DHT22;331;48.414;9.938;2023-02-28T10:12:44;0.10;99.90
698;DHT22;331;48.414;9.938;2023-02-28T10:15:13;0.20;99.90
698;DHT22;331;48.414;9.938;2023-02-28T10:17:41;0.20;99.90
698;DHT22;331;48.414;9.938;2023-02-28T10:20:10;0.10;99.90
698;DHT22;331;48.414;9.938;2023-02-28T10:22:40;0.10;99.90
698;DHT22;331;48.414;9.938;2023-02-28T10:25:16;0.10;99.90
698;DHT22;331;48.414;9.938;2023-02-28T10:27:45;0.10;99.90
698;DHT22;331;48.414;9.938;2023-02-28T10:30:12;0.10;99.90
698;DHT22;331;48.414;9.938;2023-02-28T10:32:39;0.10;99.90
698;DHT22;331;48.414;9.938;2023-02-28T10:35:09;0.10;99.90
698;DHT22;331;48.414;9.938;2023-02-28T10:37:40;0.10;99.90
698;DHT22;331;48.414;9.938;2023-02-28T10:40:11;0.10;99.90
698;DHT22;331;48.414;9.938;2023-02-28T10:42:56;0.10;99.90
698;DHT22;331;48.414;9.938;2023-02-28T10:45:23;0.10;99.90
698;DHT22;331;48.414;9.938;2023-02-28T10:47:51;0.10;99.90
698;DHT22;331;48.414;9.938;2023-02-28T10:50:26;0.10;99.90
698;DHT22;331;48.414;9.938;2023-02-28T10:52:53;0.10;99.90
698;DHT22;331;48.414;9.938;2023-02-28T10:55:21;0.10;99.90
698;DHT22;331;48.414;9.938;2023-02-28T10:57:48;0.20;99.90
698;DHT22;331;48.414;9.938;2023-02-28T11:00:17;0.20;99.90
698;DHT22;331;48.414;9.938;2023-02-28T11:02:45;0.20;99.90
698;DHT22;331;48.414;9.938;2023-02-28T11:05:28;0.20;99.90
698;DHT22;331;48.414;9.938;2023-02-28T11:07:56;0.20;99.90
698;DHT22;331;48.414;9.938;2023-02-28T11:10:26;0.20;99.90
698;DHT22;331;48.414;9.938;2023-02-28T11:12:55;0.20;99.90
698;DHT22;331;48.414;9.938;2023-02-28T11:15:24;0.20;99.90
698;DHT22;331;48.414;9.938;2023-02-28T11:17:54;0.20;99.90
698;DHT22;331;48.414;9.938;2023-02-28T11:20:21;0.20;99.90
698;DHT22;331;48.414;9.938;2023-02-28T11:22:49;0.20;99.90
698;DHT22;331;48.414;9.938;2023-02-28T11:25:20;0.20;99.90
698;DHT22;331;48.414;9.938;2023-02-28T11:27:48;0.30;99.90
698;DHT22;331;48.414;9.938;2023-02-28T11:30:31;0.30;99.90
698;DHT22;331;48.414;9.938;2023-02-28T11:32:59;0.30;99.90
698;DHT22;331;48.414;9.938;2023-02-28T11:35:27;0.30;99.90
698;DHT22;331;48.414;9.938;2023-02-28T11:37:55;0.40;99.90
698;DHT22;331;48.414;9.938;2023-02-28T11:40:24;0.40;99.90
698;DHT22;331;48.414;9.938;2023-02-28T11:42:58;0.40;99.90
698;DHT22;331;48.414;9.938;2023-02-28T11:45:34;0.40;99.90
698;DHT22;331;48.414;9.938;2023-02-28T11:48:04;0.40;99.90
698;DHT22;331;48.414;9.938;2023-02-28T11:50:39;0.40;99.90
698;DHT22;331;48.414;9.938;2023-02-28T11:53:10;0.40;99.90
698;DHT22;331;48.414;9.938;2023-02-28T11:55:41;0.40;99.90
698;DHT22;331;48.414;9.938;2023-02-28T11:58:21;0.40;99.90
698;DHT22;331;48.414;9.938;2023-02-28T12:00:57;0.50;99.90
698;DHT22;331;48.414;9.938;2023-02-28T12:03:31;0.50;99.90
698;DHT22;331;48.414;9.938;2023-02-28T12:06:06;0.50;99.90
698;DHT22;331;48.414;9.938;2023-02-28T12:11:25;0.50;99.90
698;DHT22;331;48.414;9.938;2023-02-28T12:13:56;0.50;99.90
698;DHT22;331;48.414;9.938;2023-02-28T12:16:36;0.60;99.90
698;DHT22;331;48.414;9.938;2023-02-28T12:19:07;0.60;99.90
698;DHT22;331;48.414;9.938;2023-02-28T12:21:44;0.60;99.90
698;DHT22;331;48.414;9.938;2023-02-28T12:24:36;0.60;99.90
698;DHT22;331;48.414;9.938;2023-02-28T12:27:06;0.60;99.90
698;DHT22;331;48.414;9.938;2023-02-28T12:29:36;0.60;99.90
698;DHT22;331;48.414;9.938;2023-02-28T12:32:11;0.60;99.90
698;DHT22;331;48.414;9.938;2023-02-28T12:34:41;0.60;99.90
698;DHT22;331;48.414;9.938;2023-02-28T12:37:10;0.60;99.90
698;DHT22;331;48.414;9.938;2023-02-28T12:39:40;0.70;99.90
698;DHT22;331;48.414;9.938;2023-02-28T12:42:10;0.70;99.90
698;DHT22;331;48.414;9.938;2023-02-28T12:44:39;0.70;99.90
698;DHT22;331;48.414;9.938;2023-02-28T12:47:10;0.70;99.90
698;DHT22;331;48.414;9.938;2023-02-28T12:49:41;0.70;99.90
698;DHT22;331;48.414;9.938;2023-02-28T12:52:09;0.70;99.90
698;DHT22;331;48.414;9.938;2023-02-28T12:54:40;0.70;99.90
698;DHT22;331;48.414;9.938;2023-02-28T12:57:11;0.80;99.90
698;DHT22;331;48.414;9.938;2023-02-28T12:59:40;0.80;99.90
698;DHT22;331;48.414;9.938;2023-02-28T13:02:21;0.80;99.90
698;DHT22;331;48.414;9.938;2023-02-28T13:04:57;0.80;99.90
698;DHT22;331;48.414;9.938;2023-02-28T13:10:27;0.80;99.90
698;DHT22;331;48.414;9.938;2023-02-28T13:13:03;0.80;99.90
698;DHT22;331;48.414;9.938;2023-02-28T13:15:30;0.80;99.90
698;DHT22;331;48.414;9.938;2023-02-28T13:18:01;0.90;99.90
698;DHT22;331;48.414;9.938;2023-02-28T13:20:29;0.90;99.90
698;DHT22;331;48.414;9.938;2023-02-28T13:22:59;0.90;99.90
698;DHT22;331;48.414;9.938;2023-02-28T13:31:02;0.90;99.90
698;DHT22;331;48.414;9.938;2023-02-28T13:33:30;0.90;99.90
698;DHT22;331;48.414;9.938;2023-02-28T13:36:08;1.00;99.90
698;DHT22;331;48.414;9.938;2023-02-28T13:38:36;1.00;99.90
698;DHT22;331;48.414;9.938;2023-02-28T13:44:04;1.00;99.90
698;DHT22;331;48.414;9.938;2023-02-28T13:46:32;1.10;99.90
698;DHT22;331;48.414;9.938;2023-02-28T13:51:43;1.10;99.90
698;DHT22;331;48.414;9.938;2023-02-28T13:54:15;1.10;99.90
698;DHT22;331;48.414;9.938;2023-02-28T13:56:45;1.10;99.90
698;DHT22;331;48.414;9.938;2023-02-28T13:59:16;1.20;99.90
698;DHT22;331;48.414;9.938;2023-02-28T14:01:52;1.20;99.90
698;DHT22;331;48.414;9.938;2023-02-28T14:07:09;1.20;99.90
698;DHT22;331;48.414;9.938;2023-02-28T14:09:37;1.20;99.90
698;DHT22;331;48.414;9.938;2023-02-28T14:14:54;1.30;99.90
698;DHT22;331;48.414;9.938;2023-02-28T14:17:22;1.30;99.90
698;DHT22;331;48.414;9.938;2023-02-28T14:19:50;1.30;99.90
698;DHT22;331;48.414;9.938;2023-02-28T14:22:22;1.30;99.90
698;DHT22;331;48.414;9.938;2023-02-28T14:25:09;1.40;99.90
698;DHT22;331;48.414;9.938;2023-02-28T14:27:41;1.40;99.90
698;DHT22;331;48.414;9.938;2023-02-28T14:30:26;1.40;99.90
698;DHT22;331;48.414;9.938;2023-02-28T14:32:59;1.40;99.90
698;DHT22;331;48.414;9.938;2023-02-28T14:35:35;1.40;99.90
698;DHT22;331;48.414;9.938;2023-02-28T14:38:18;1.40;99.90
698;DHT22;331;48.414;9.938;2023-02-28T14:40:47;1.50;99.90
698;DHT22;331;48.414;9.938;2023-02-28T14:43:18;1.50;99.90
698;DHT22;331;48.414;9.938;2023-02-28T14:45:49;1.40;99.90
698;DHT22;331;48.414;9.938;2023-02-28T14:48:16;1.50;99.90
698;DHT22;331;48.414;9.938;2023-02-28T14:50:48;1.50;99.90
698;DHT22;331;48.414;9.938;2023-02-28T14:53:17;1.50;99.90
698;DHT22;331;48.414;9.938;2023-02-28T14:55:45;1.50;99.90
698;DHT22;331;48.414;9.938;2023-02-28T14:58:19;1.50;99.90
698;DHT22;331;48.414;9.938;2023-02-28T15:00:48;1.50;99.90
698;DHT22;331;48.414;9.938;2023-02-28T15:03:18;1.50;99.90
698;DHT22;331;48.414;9.938;2023-02-28T15:05:51;1.50;99.90
698;DHT22;331;48.414;9.938;2023-02-28T15:08:19;1.50;99.90
698;DHT22;331;48.414;9.938;2023-02-28T15:10:50;1.60;99.90
698;DHT22;331;48.414;9.938;2023-02-28T15:13:18;1.60;99.90
698;DHT22;331;48.414;9.938;2023-02-28T15:15:46;1.60;99.90
698;DHT22;331;48.414;9.938;2023-02-28T15:18:16;1.60;99.90
698;DHT22;331;48.414;9.938;2023-02-28T15:20:45;1.60;99.90
698;DHT22;331;48.414;9.938;2023-02-28T15:23:12;1.60;99.90
698;DHT22;331;48.414;9.938;2023-02-28T15:25:42;1.70;99.90
698;DHT22;331;48.414;9.938;2023-02-28T15:28:11;1.70;99.90
698;DHT22;331;48.414;9.938;2023-02-28T15:30:39;1.70;99.90
698;DHT22;331;48.414;9.938;2023-02-28T15:33:20;1.70;99.90
698;DHT22;331;48.414;9.938;2023-02-28T15:35:48;1.70;99.90
698;DHT22;331;48.414;9.938;2023-02-28T15:38:16;1.70;99.90
698;DHT22;331;48.414;9.938;2023-02-28T15:40:45;1.70;99.90
698;DHT22;331;48.414;9.938;2023-02-28T15:43:22;1.70;99.90
698;DHT22;331;48.414;9.938;2023-02-28T15:45:50;1.70;99.90
698;DHT22;331;48.414;9.938;2023-02-28T15:48:18;1.70;99.90
698;DHT22;331;48.414;9.938;2023-02-28T15:50:47;1.70;99.90
698;DHT22;331;48.414;9.938;2023-02-28T15:53:15;1.70;99.90
698;DHT22;331;48.414;9.938;2023-02-28T15:55:45;1.80;99.90
698;DHT22;331;48.414;9.938;2023-02-28T15:58:18;1.80;99.90
698;DHT22;331;48.414;9.938;2023-02-28T16:00:59;1.80;99.90
698;DHT22;331;48.414;9.938;2023-02-28T16:03:27;1.80;99.90
698;DHT22;331;48.414;9.938;2023-02-28T16:08:39;1.80;99.90
698;DHT22;331;48.414;9.938;2023-02-28T16:11:09;1.80;99.90
698;DHT22;331;48.414;9.938;2023-02-28T16:13:36;1.80;99.90
698;DHT22;331;48.414;9.938;2023-02-28T16:16:03;1.80;99.90
698;DHT22;331;48.414;9.938;2023-02-28T16:18:30;1.80;99.90
698;DHT22;331;48.414;9.938;2023-02-28T16:20:59;1.80;99.90
698;DHT22;331;48.414;9.938;2023-02-28T16:23:26;1.80;99.90
698;DHT22;331;48.414;9.938;2023-02-28T16:25:53;1.80;99.90
698;DHT22;331;48.414;9.938;2023-02-28T16:28:22;1.80;99.90
698;DHT22;331;48.414;9.938;2023-02-28T16:30:50;1.80;99.90
698;DHT22;331;48.414;9.938;2023-02-28T16:33:17;1.80;99.90
698;DHT22;331;48.414;9.938;2023-02-28T16:35:46;1.80;99.90
698;DHT22;331;48.414;9.938;2023-02-28T16:38:13;1.80;99.90
698;DHT22;331;48.414;9.938;2023-02-28T16:40:40;1.70;99.90
698;DHT22;331;48.414;9.938;2023-02-28T16:43:09;1.80;99.90
698;DHT22;331;48.414;9.938;2023-02-28T16:45:38;1.80;99.90
698;DHT22;331;48.414;9.938;2023-02-28T16:48:04;1.80;99.90
698;DHT22;331;48.414;9.938;2023-02-28T16:50:31;1.80;99.90
698;DHT22;331;48.414;9.938;2023-02-28T16:52:59;1.80;99.90
698;DHT22;331;48.414;9.938;2023-02-28T16:55:26;1.80;99.90
698;DHT22;331;48.414;9.938;2023-02-28T16:57:53;1.80;99.90
698;DHT22;331;48.414;9.938;2023-02-28T17:00:23;1.80;99.90
698;DHT22;331;48.414;9.938;2023-02-28T17:02:52;1.80;99.90
698;DHT22;331;48.414;9.938;2023-02-28T17:05:19;1.80;99.90
698;DHT22;331;48.414;9.938;2023-02-28T17:07:46;1.80;99.90
698;DHT22;331;48.414;9.938;2023-02-28T17:10:14;1.80;99.90
698;DHT22;331;48.414;9.938;2023-02-28T17:12:41;1.80;99.90
698;DHT22;331;48.414;9.938;2023-02-28T17:15:09;1.80;99.90
698;DHT22;331;48.414;9.938;2023-02-28T17:17:37;1.80;99.90
698;DHT22;331;48.414;9.938;2023-02-28T17:20:09;1.80;99.90
698;DHT22;331;48.414;9.938;2023-02-28T17:22:38;1.80;99.90
698;DHT22;331;48.414;9.938;2023-02-28T17:25:05;1.80;99.90